createdAt,value
2022-09-12T00:01:25.876Z,10.93
2022-09-12T00:03:56.143Z,10.89
2022-09-12T00:06:33.446Z,10.86
2022-09-12T00:09:04.895Z,10.85
2022-09-12T00:11:35.017Z,10.84
2022-09-12T00:14:03.636Z,10.82
2022-09-12T00:16:34.442Z,10.80
2022-09-12T00:19:03.629Z,10.79
2022-09-12T00:21:34.268Z,10.77
2022-09-12T00:24:02.535Z,10.73
2022-09-12T00:26:30.910Z,10.71
2022-09-12T00:28:58.782Z,10.68
2022-09-12T00:31:27.453Z,10.67
2022-09-12T00:34:00.962Z,10.65
2022-09-12T00:36:30.619Z,10.65
2022-09-12T00:38:59.000Z,10.63
2022-09-12T00:41:38.790Z,10.62
2022-09-12T00:44:26.699Z,10.60
2022-09-12T00:47:10.876Z,10.58
2022-09-12T00:50:03.523Z,10.57
2022-09-12T00:52:41.627Z,10.55
2022-09-12T00:55:18.707Z,10.53
2022-09-12T00:57:51.891Z,10.51
2022-09-12T01:00:23.461Z,10.50
2022-09-12T01:02:56.816Z,10.49
2022-09-12T01:05:26.660Z,10.47
2022-09-12T01:07:57.080Z,10.47
2022-09-12T01:10:25.160Z,10.47
2022-09-12T01:12:53.221Z,10.46
2022-09-12T01:15:21.091Z,10.46
2022-09-12T01:18:12.833Z,10.47
2022-09-12T01:20:50.611Z,10.49
2022-09-12T01:23:48.633Z,10.50
2022-09-12T01:26:38.059Z,10.52
2022-09-12T01:29:41.901Z,10.55
2022-09-12T01:32:32.565Z,10.56
2022-09-12T01:35:34.226Z,10.59
2022-09-12T01:38:17.653Z,10.62
2022-09-12T01:40:56.269Z,10.64
2022-09-12T01:43:35.501Z,10.65
2022-09-12T01:46:18.009Z,10.67
2022-09-12T01:49:00.419Z,10.69
2022-09-12T01:51:33.922Z,10.72
2022-09-12T01:54:12.804Z,10.74
2022-09-12T01:56:44.089Z,10.74
2022-09-12T01:59:22.089Z,10.75
2022-09-12T02:02:03.098Z,10.77
2022-09-12T02:04:48.965Z,10.78
2022-09-12T02:07:27.569Z,10.77
2022-09-12T02:10:04.378Z,10.77
2022-09-12T02:12:49.925Z,10.76
2022-09-12T02:15:21.172Z,10.77
2022-09-12T02:17:52.821Z,10.76
2022-09-12T02:20:44.419Z,10.76
2022-09-12T02:23:23.677Z,10.75
2022-09-12T02:25:57.679Z,10.74
2022-09-12T02:28:31.490Z,10.74
2022-09-12T02:31:14.514Z,10.73
2022-09-12T02:34:08.797Z,10.71
2022-09-12T02:36:55.913Z,10.68
2022-09-12T02:39:24.906Z,10.65
2022-09-12T02:41:57.313Z,10.62
2022-09-12T02:44:27.290Z,10.61
2022-09-12T02:47:05.705Z,10.57
2022-09-12T02:49:33.876Z,10.56
2022-09-12T02:52:02.513Z,10.55
2022-09-12T02:54:31.222Z,10.54
2022-09-12T02:56:59.063Z,10.55
2022-09-12T02:59:27.461Z,10.56
2022-09-12T03:02:01.090Z,10.55
2022-09-12T03:04:58.241Z,10.54
2022-09-12T03:07:41.365Z,10.53
2022-09-12T03:10:24.589Z,10.54
2022-09-12T03:13:11.022Z,10.54
2022-09-12T03:16:23.456Z,10.53
2022-09-12T03:19:09.215Z,10.53
2022-09-12T03:21:54.966Z,10.53
2022-09-12T03:24:48.441Z,10.52
2022-09-12T03:27:21.498Z,10.51
2022-09-12T03:29:51.085Z,10.50
2022-09-12T03:32:19.006Z,10.51
2022-09-12T03:34:46.865Z,10.51
2022-09-12T03:37:14.845Z,10.51
2022-09-12T03:39:42.663Z,10.53
2022-09-12T03:42:10.667Z,10.55
2022-09-12T03:44:38.530Z,10.56
2022-09-12T03:47:11.027Z,10.56
2022-09-12T03:49:39.206Z,10.58
2022-09-12T03:52:07.247Z,10.59
2022-09-12T03:54:35.011Z,10.60
2022-09-12T03:57:02.875Z,10.59
2022-09-12T03:59:31.255Z,10.57
2022-09-12T04:01:59.279Z,10.55
2022-09-12T04:04:27.290Z,10.53
2022-09-12T04:06:55.379Z,10.54
2022-09-12T04:09:23.674Z,10.54
2022-09-12T04:11:51.607Z,10.53
2022-09-12T04:14:19.474Z,10.54
2022-09-12T04:16:47.291Z,10.54
2022-09-12T04:19:15.281Z,10.55
2022-09-12T04:21:43.179Z,10.57
2022-09-12T04:24:10.947Z,10.58
2022-09-12T04:26:38.702Z,10.61
2022-09-12T04:29:06.562Z,10.61
2022-09-12T04:31:34.326Z,10.63
2022-09-12T04:34:02.807Z,10.63
2022-09-12T04:36:31.222Z,10.64
2022-09-12T04:39:00.482Z,10.64
2022-09-12T04:41:31.478Z,10.62
2022-09-12T04:44:02.568Z,10.62
2022-09-12T04:46:32.886Z,10.61
2022-09-12T04:49:00.830Z,10.60
2022-09-12T04:51:31.726Z,10.60
2022-09-12T04:54:02.735Z,10.60
2022-09-12T04:56:31.386Z,10.59
2022-09-12T04:59:01.228Z,10.60
2022-09-12T05:01:30.448Z,10.62
2022-09-12T05:04:00.234Z,10.63
2022-09-12T05:06:30.876Z,10.65
2022-09-12T05:08:59.968Z,10.66
2022-09-12T05:11:59.781Z,10.66
2022-09-12T05:14:19.127Z,10.68
2022-09-12T05:16:49.366Z,10.69
2022-09-12T05:19:17.659Z,10.70
2022-09-12T05:21:45.706Z,10.71
2022-09-12T05:24:13.479Z,10.73
2022-09-12T05:26:41.335Z,10.75
2022-09-12T05:29:09.200Z,10.77
2022-09-12T05:31:37.883Z,10.80
2022-09-12T05:34:07.288Z,10.82
2022-09-12T05:36:35.254Z,10.85
2022-09-12T05:39:04.338Z,10.86
2022-09-12T05:41:34.130Z,10.88
2022-09-12T05:44:04.531Z,10.89
2022-09-12T05:46:40.397Z,10.91
2022-09-12T05:49:10.350Z,10.93
2022-09-12T05:51:41.616Z,10.94
2022-09-12T05:54:12.332Z,10.95
2022-09-12T05:56:43.235Z,10.96
2022-09-12T05:59:17.687Z,10.98
2022-09-12T06:01:45.921Z,11.00
2022-09-12T06:04:14.135Z,11.01
2022-09-12T06:06:47.000Z,11.03
2022-09-12T06:09:16.634Z,11.05
2022-09-12T06:11:45.827Z,11.08
2022-09-12T06:14:17.745Z,11.11
2022-09-12T06:16:47.254Z,11.13
2022-09-12T06:19:18.223Z,11.15
2022-09-12T06:21:48.554Z,11.19
2022-09-12T06:24:17.881Z,11.22
2022-09-12T06:26:47.843Z,11.24
2022-09-12T06:29:16.338Z,11.27
2022-09-12T06:31:44.833Z,11.29
2022-09-12T06:34:15.146Z,11.30
2022-09-12T06:36:48.371Z,11.31
2022-09-12T06:39:23.445Z,11.36
2022-09-12T06:41:52.957Z,11.36
2022-09-12T06:44:22.663Z,11.37
2022-09-12T06:46:50.856Z,11.40
2022-09-12T06:49:19.026Z,11.41
2022-09-12T06:51:47.107Z,11.41
2022-09-12T06:54:16.925Z,11.42
2022-09-12T06:56:45.227Z,11.42
2022-09-12T06:59:13.152Z,11.44
2022-09-12T07:01:42.088Z,11.43
2022-09-12T07:04:10.536Z,11.44
2022-09-12T07:06:41.393Z,11.44
2022-09-12T07:09:13.113Z,11.45
2022-09-12T07:11:42.465Z,11.46
2022-09-12T07:14:14.107Z,11.47
2022-09-12T07:16:42.395Z,11.50
2022-09-12T07:19:10.930Z,11.54
2022-09-12T07:21:41.786Z,11.58
2022-09-12T07:24:11.107Z,11.60
2022-09-12T07:26:42.496Z,11.63
2022-09-12T07:29:35.904Z,11.64
2022-09-12T07:32:05.675Z,11.69
2022-09-12T07:34:34.481Z,11.72
2022-09-12T07:37:02.542Z,11.75
2022-09-12T07:39:30.321Z,11.78
2022-09-12T07:41:58.888Z,11.81
2022-09-12T07:44:28.289Z,11.87
2022-09-12T07:46:56.079Z,11.90
2022-09-12T07:49:24.332Z,11.92
2022-09-12T07:51:52.093Z,11.92
2022-09-12T07:54:20.443Z,11.93
2022-09-12T07:56:48.338Z,11.95
2022-09-12T07:59:29.988Z,11.98
2022-09-12T08:02:04.201Z,12.02
2022-09-12T08:04:32.122Z,12.04
2022-09-12T08:06:59.968Z,12.07
2022-09-12T08:09:27.732Z,12.11
2022-09-12T08:11:55.495Z,12.13
2022-09-12T08:14:23.462Z,12.16
2022-09-12T08:16:51.332Z,12.20
2022-09-12T08:19:19.765Z,12.23
2022-09-12T08:21:47.500Z,12.28
2022-09-12T08:24:16.051Z,12.33
2022-09-12T08:26:43.935Z,12.36
2022-09-12T08:29:12.243Z,12.40
2022-09-12T08:31:41.593Z,12.44
2022-09-12T08:34:10.085Z,12.47
2022-09-12T08:36:37.939Z,12.51
2022-09-12T08:39:07.861Z,12.55
2022-09-12T08:41:47.906Z,12.59
2022-09-12T08:44:21.786Z,12.65
2022-09-12T08:46:49.572Z,12.70
2022-09-12T08:49:29.123Z,12.75
2022-09-12T08:52:00.872Z,12.82
2022-09-12T08:54:30.870Z,12.90
2022-09-12T08:57:04.001Z,12.98
2022-09-12T08:59:39.913Z,13.04
2022-09-12T09:02:46.199Z,13.08
2022-09-12T09:05:43.550Z,13.16
2022-09-12T09:08:40.199Z,13.23
2022-09-12T09:11:29.161Z,13.29
2022-09-12T09:14:50.576Z,13.32
2022-09-12T09:17:40.286Z,13.38
2022-09-12T09:20:43.854Z,13.42
2022-09-12T09:23:31.074Z,13.46
2022-09-12T09:26:27.481Z,13.49
2022-09-12T09:29:11.146Z,13.51
2022-09-12T09:31:40.542Z,13.55
2022-09-12T09:34:22.135Z,13.58
2022-09-12T09:36:57.346Z,13.62
2022-09-12T09:40:27.799Z,13.64
2022-09-12T09:43:12.263Z,13.68
2022-09-12T09:45:44.548Z,13.71
2022-09-12T09:48:29.443Z,13.75
2022-09-12T09:51:00.487Z,13.76
2022-09-12T09:53:56.770Z,13.78
2022-09-12T09:56:27.390Z,13.81
2022-09-12T09:58:55.685Z,13.84
2022-09-12T10:01:24.821Z,13.86
2022-09-12T10:03:56.730Z,13.89
2022-09-12T10:06:37.099Z,13.91
2022-09-12T10:09:16.526Z,13.92
2022-09-12T10:11:46.017Z,13.96
2022-09-12T10:14:28.217Z,13.98
2022-09-12T10:16:56.804Z,13.99
2022-09-12T10:19:40.482Z,14.01
2022-09-12T10:22:18.237Z,14.02
2022-09-12T10:24:52.511Z,14.03
2022-09-12T10:27:31.377Z,14.05
2022-09-12T10:30:20.398Z,14.07
2022-09-12T10:32:53.177Z,14.10
2022-09-12T10:35:28.669Z,14.14
2022-09-12T10:38:06.873Z,14.18
2022-09-12T10:40:43.381Z,14.20
2022-09-12T10:43:34.529Z,14.23
2022-09-12T10:46:15.851Z,14.24
2022-09-12T10:48:49.338Z,14.28
2022-09-12T10:51:26.021Z,14.31
2022-09-12T10:53:57.760Z,14.35
2022-09-12T10:56:32.893Z,14.36
2022-09-12T10:59:21.857Z,14.38
2022-09-12T11:01:57.477Z,14.41
2022-09-12T11:04:43.905Z,14.42
2022-09-12T11:07:41.056Z,14.44
2022-09-12T11:10:27.464Z,14.48
2022-09-12T11:13:25.837Z,14.50
2022-09-12T11:16:08.679Z,14.53
2022-09-12T11:19:04.040Z,14.54
2022-09-12T11:21:34.697Z,14.56
2022-09-12T11:24:23.477Z,14.57
2022-09-12T11:27:20.599Z,14.58
2022-09-12T11:30:11.449Z,14.59
2022-09-12T11:33:08.964Z,14.60
2022-09-12T11:35:53.061Z,14.63
2022-09-12T11:38:47.842Z,14.66
2022-09-12T11:41:27.039Z,14.68
2022-09-12T11:44:03.799Z,14.71
2022-09-12T11:46:40.093Z,14.73
2022-09-12T11:49:14.970Z,14.74
2022-09-12T11:52:04.172Z,14.76
2022-09-12T11:54:52.840Z,14.76
2022-09-12T11:57:40.759Z,14.77
2022-09-12T12:00:19.623Z,14.78
2022-09-12T12:02:59.634Z,14.81
2022-09-12T12:05:52.157Z,14.82
2022-09-12T12:08:23.532Z,14.83
2022-09-12T12:11:00.709Z,14.86
2022-09-12T12:13:45.986Z,14.89
2022-09-12T12:16:34.944Z,14.93
2022-09-12T12:19:10.736Z,14.96
2022-09-12T12:21:40.767Z,14.96
2022-09-12T12:24:08.678Z,14.97
2022-09-12T12:26:40.026Z,14.99
2022-09-12T12:29:13.829Z,15.01
2022-09-12T12:32:00.331Z,15.06
2022-09-12T12:34:42.124Z,15.11
2022-09-12T12:37:19.307Z,15.16
2022-09-12T12:39:48.448Z,15.20
2022-09-12T12:42:35.249Z,15.25
2022-09-12T12:45:26.735Z,15.29
2022-09-12T12:48:00.349Z,15.31
2022-09-12T12:50:32.295Z,15.32
2022-09-12T12:53:03.748Z,15.36
2022-09-12T12:55:57.833Z,15.36
2022-09-12T12:58:28.968Z,15.36
2022-09-12T13:01:15.008Z,15.37
2022-09-12T13:04:05.575Z,15.38
2022-09-12T13:06:33.325Z,15.38
2022-09-12T13:09:19.415Z,15.40
2022-09-12T13:11:47.552Z,15.41
2022-09-12T13:14:35.639Z,15.44
2022-09-12T13:17:08.646Z,15.51
2022-09-12T13:19:38.238Z,15.54
2022-09-12T13:22:10.526Z,15.57
2022-09-12T13:24:48.997Z,15.62
2022-09-12T13:27:26.312Z,15.66
2022-09-12T13:30:09.831Z,15.69
2022-09-12T13:32:37.786Z,15.70
2022-09-12T13:35:28.691Z,15.73
2022-09-12T13:38:20.736Z,15.75
2022-09-12T13:41:22.484Z,15.76
2022-09-12T13:43:50.553Z,15.79
2022-09-12T13:46:28.429Z,15.80
2022-09-12T13:48:58.981Z,15.80
2022-09-12T13:51:30.535Z,15.79
2022-09-12T13:54:03.277Z,15.79
2022-09-12T13:56:31.323Z,15.78
2022-09-12T13:59:01.816Z,15.78
2022-09-12T14:01:40.499Z,15.76
2022-09-12T14:04:40.549Z,15.77
2022-09-12T14:07:21.215Z,15.78
2022-09-12T14:09:58.053Z,15.79
2022-09-12T14:12:28.723Z,15.80
2022-09-12T14:14:57.415Z,15.80
2022-09-12T14:17:32.996Z,15.83
2022-09-12T14:20:09.504Z,15.87
2022-09-12T14:22:38.933Z,15.92
2022-09-12T14:25:14.038Z,15.98
2022-09-12T14:27:47.981Z,16.04
2022-09-12T14:30:27.918Z,16.09
2022-09-12T14:33:11.148Z,16.12
2022-09-12T14:35:43.616Z,16.23
2022-09-12T14:38:17.733Z,16.33
2022-09-12T14:40:53.191Z,16.37
2022-09-12T14:43:23.593Z,16.39
2022-09-12T14:46:01.199Z,16.40
2022-09-12T14:48:34.331Z,16.39
2022-09-12T14:51:02.861Z,16.38
2022-09-12T14:53:32.770Z,16.37
2022-09-12T14:56:14.331Z,16.36
2022-09-12T14:58:42.623Z,16.34
2022-09-12T15:01:13.319Z,16.31
2022-09-12T15:03:49.997Z,16.28
2022-09-12T15:06:32.657Z,16.24
2022-09-12T15:09:06.958Z,16.21
2022-09-12T15:11:34.942Z,16.15
2022-09-12T15:14:29.038Z,16.09
2022-09-12T15:16:56.789Z,16.03
2022-09-12T15:19:24.647Z,15.98
2022-09-12T15:21:53.181Z,15.93
2022-09-12T15:24:21.016Z,15.86
2022-09-12T15:26:49.079Z,15.80
2022-09-12T15:29:16.826Z,15.73
2022-09-12T15:31:47.562Z,15.67
2022-09-12T15:34:15.628Z,15.61
2022-09-12T15:36:43.500Z,15.54
2022-09-12T15:39:12.179Z,15.50
2022-09-12T15:41:40.799Z,15.44
2022-09-12T15:44:12.825Z,15.39
2022-09-12T15:46:41.121Z,15.33
2022-09-12T15:49:09.124Z,15.29
2022-09-12T15:51:37.346Z,15.24
2022-09-12T15:54:05.520Z,15.20
2022-09-12T15:56:33.385Z,15.16
2022-09-12T15:59:01.352Z,15.10
2022-09-12T16:01:29.624Z,15.05
2022-09-12T16:03:57.933Z,15.01
2022-09-12T16:06:27.302Z,14.96
2022-09-12T16:08:55.483Z,14.90
2022-09-12T16:11:26.033Z,14.83
2022-09-12T16:13:55.303Z,14.78
2022-09-12T16:16:23.164Z,14.75
2022-09-12T16:18:51.035Z,14.73
2022-09-12T16:21:18.903Z,14.69
2022-09-12T16:23:48.123Z,14.67
2022-09-12T16:26:16.682Z,14.64
2022-09-12T16:28:45.006Z,14.62
2022-09-12T16:31:14.393Z,14.59
2022-09-12T16:33:42.426Z,14.56
2022-09-12T16:36:13.059Z,14.54
2022-09-12T16:38:42.578Z,14.51
2022-09-12T16:41:11.301Z,14.49
2022-09-12T16:43:39.914Z,14.47
2022-09-12T16:46:11.884Z,14.43
2022-09-12T16:48:52.602Z,14.40
2022-09-12T16:51:24.015Z,14.38
2022-09-12T16:53:52.515Z,14.35
2022-09-12T16:56:20.976Z,14.33
2022-09-12T16:58:49.015Z,14.30
2022-09-12T17:01:20.435Z,14.28
2022-09-12T17:03:48.945Z,14.26
2022-09-12T17:06:18.573Z,14.25
2022-09-12T17:08:49.383Z,14.23
2022-09-12T17:11:38.368Z,14.22
2022-09-12T17:14:08.386Z,14.19
2022-09-12T17:16:42.393Z,14.18
2022-09-12T17:19:26.797Z,14.17
2022-09-12T17:21:54.919Z,14.14
2022-09-12T17:24:23.298Z,14.14
2022-09-12T17:26:52.132Z,14.12
2022-09-12T17:29:20.406Z,14.11
2022-09-12T17:31:49.014Z,14.09
2022-09-12T17:34:17.982Z,14.06
2022-09-12T17:36:48.401Z,14.04
2022-09-12T17:39:16.333Z,14.02
2022-09-12T17:41:46.159Z,14.00
2022-09-12T17:44:15.239Z,13.99
2022-09-12T17:46:44.478Z,13.97
2022-09-12T17:49:15.073Z,13.96
2022-09-12T17:51:44.067Z,13.93
2022-09-12T17:54:18.474Z,13.90
2022-09-12T17:56:49.117Z,13.88
2022-09-12T17:59:24.598Z,13.85
2022-09-12T18:02:11.110Z,13.83
2022-09-12T18:04:45.964Z,13.81
2022-09-12T18:07:16.226Z,13.80
2022-09-12T18:09:44.730Z,13.78
2022-09-12T18:12:12.545Z,13.77
2022-09-12T18:14:41.168Z,13.76
2022-09-12T18:17:11.392Z,13.76
2022-09-12T18:19:39.420Z,13.74
2022-09-12T18:22:07.595Z,13.73
2022-09-12T18:24:36.025Z,13.71
2022-09-12T18:27:04.859Z,13.70
2022-09-12T18:29:32.827Z,13.67
2022-09-12T18:32:01.006Z,13.67
2022-09-12T18:34:28.972Z,13.66
2022-09-12T18:36:56.936Z,13.66
2022-09-12T18:39:27.745Z,13.65
2022-09-12T18:41:55.913Z,13.65
2022-09-12T18:44:23.671Z,13.65
2022-09-12T18:46:51.600Z,13.64
2022-09-12T18:49:19.335Z,13.64
2022-09-12T18:51:47.272Z,13.63
2022-09-12T18:54:15.579Z,13.62
2022-09-12T18:56:45.549Z,13.62
2022-09-12T18:59:15.082Z,13.62
2022-09-12T19:01:43.941Z,13.61
2022-09-12T19:04:13.287Z,13.61
2022-09-12T19:06:43.814Z,13.60
2022-09-12T19:09:14.460Z,13.59
2022-09-12T19:11:50.447Z,13.58
2022-09-12T19:14:22.593Z,13.57
2022-09-12T19:16:52.249Z,13.55
2022-09-12T19:19:21.130Z,13.53
2022-09-12T19:21:49.249Z,13.52
2022-09-12T19:24:17.361Z,13.50
2022-09-12T19:26:45.647Z,13.49
2022-09-12T19:29:14.884Z,13.47
2022-09-12T19:31:44.178Z,13.46
2022-09-12T19:34:14.809Z,13.45
2022-09-12T19:36:45.363Z,13.44
2022-09-12T19:39:16.374Z,13.41
2022-09-12T19:41:45.191Z,13.38
2022-09-12T19:44:13.759Z,13.37
2022-09-12T19:46:42.084Z,13.35
2022-09-12T19:49:11.550Z,13.33
2022-09-12T19:51:39.606Z,13.31
2022-09-12T19:54:07.970Z,13.29
2022-09-12T19:56:36.083Z,13.27
2022-09-12T19:59:04.461Z,13.25
2022-09-12T20:01:32.815Z,13.24
2022-09-12T20:04:00.666Z,13.22
2022-09-12T20:06:28.841Z,13.20
2022-09-12T20:08:56.707Z,13.18
2022-09-12T20:11:25.907Z,13.13
2022-09-12T20:13:54.084Z,13.09
2022-09-12T20:16:25.762Z,13.04
2022-09-12T20:18:56.459Z,13.01
2022-09-12T20:21:31.757Z,12.96
2022-09-12T20:24:10.523Z,12.93
2022-09-12T20:26:39.762Z,12.89
2022-09-12T20:29:08.812Z,12.85
2022-09-12T20:31:38.822Z,12.80
2022-09-12T20:34:08.234Z,12.73
2022-09-12T20:36:36.299Z,12.68
2022-09-12T20:39:05.151Z,12.63
2022-09-12T20:41:38.181Z,12.59
2022-09-12T20:44:06.351Z,12.54
2022-09-12T20:46:34.415Z,12.50
2022-09-12T20:49:03.119Z,12.45
2022-09-12T20:51:31.131Z,12.41
2022-09-12T20:54:01.294Z,12.35
2022-09-12T20:56:31.726Z,12.30
2022-09-12T20:58:59.792Z,12.26
2022-09-12T21:01:29.912Z,12.22
2022-09-12T21:03:59.925Z,12.19
2022-09-12T21:06:28.105Z,12.16
2022-09-12T21:09:00.791Z,12.12
2022-09-12T21:11:29.158Z,12.10
2022-09-12T21:13:58.246Z,12.07
2022-09-12T21:16:26.449Z,12.04
2022-09-12T21:18:57.304Z,11.99
2022-09-12T21:21:25.938Z,11.94
2022-09-12T21:23:57.265Z,11.90
2022-09-12T21:26:26.363Z,11.85
2022-09-12T21:28:54.572Z,11.80
2022-09-12T21:31:22.441Z,11.74
2022-09-12T21:33:51.203Z,11.69
2022-09-12T21:36:19.072Z,11.64
2022-09-12T21:38:46.935Z,11.58
2022-09-12T21:41:16.582Z,11.52
2022-09-12T21:43:45.251Z,11.46
2022-09-12T21:46:13.571Z,11.39
2022-09-12T21:48:46.082Z,11.33
2022-09-12T21:51:13.958Z,11.27
2022-09-12T21:53:41.958Z,11.23
2022-09-12T21:56:10.297Z,11.18
2022-09-12T21:58:38.590Z,11.12
2022-09-12T22:01:10.744Z,11.07
2022-09-12T22:03:38.943Z,11.00
2022-09-12T22:06:07.397Z,10.94
2022-09-12T22:08:37.553Z,10.88
2022-09-12T22:11:12.976Z,10.83
2022-09-12T22:13:43.489Z,10.78
2022-09-12T22:16:12.119Z,10.73
2022-09-12T22:18:40.032Z,10.68
2022-09-12T22:21:12.611Z,10.62
2022-09-12T22:23:59.262Z,10.56
2022-09-12T22:26:27.679Z,10.49
2022-09-12T22:28:55.918Z,10.44
2022-09-12T22:31:23.807Z,10.40
2022-09-12T22:33:51.723Z,10.35
2022-09-12T22:36:19.555Z,10.30
2022-09-12T22:38:47.568Z,10.25
2022-09-12T22:41:15.886Z,10.19
2022-09-12T22:43:43.673Z,10.15
2022-09-12T22:46:12.804Z,10.09
2022-09-12T22:48:41.590Z,10.04
2022-09-12T22:51:11.159Z,10.00
2022-09-12T22:53:39.225Z,9.95
2022-09-12T22:56:08.024Z,9.90
2022-09-12T22:58:42.124Z,9.86
2022-09-12T23:01:10.782Z,9.81
2022-09-12T23:03:39.091Z,9.78
2022-09-12T23:06:07.830Z,9.75
2022-09-12T23:08:37.178Z,9.72
2022-09-12T23:11:09.542Z,9.67
2022-09-12T23:13:38.839Z,9.63
2022-09-12T23:16:08.239Z,9.59
2022-09-12T23:18:37.029Z,9.56
2022-09-12T23:21:10.480Z,9.52
2022-09-12T23:23:39.312Z,9.48
2022-09-12T23:26:11.183Z,9.45
2022-09-12T23:28:40.578Z,9.45
2022-09-12T23:31:12.097Z,9.44
2022-09-12T23:33:40.502Z,9.42
2022-09-12T23:36:14.326Z,9.41
2022-09-12T23:38:45.232Z,9.38
2022-09-12T23:41:17.822Z,9.36
2022-09-12T23:43:46.220Z,9.33
2022-09-12T23:46:15.604Z,9.30
2022-09-12T23:48:44.563Z,9.27
2022-09-12T23:51:13.978Z,9.22
2022-09-12T23:53:42.068Z,9.18
2022-09-12T23:56:10.137Z,9.15
2022-09-12T23:58:38.144Z,9.13
